sensor_id;sensor_type;location;lat;lon;timestamp;P1;durP1;ratioP1;P2;durP2;ratioP2
31760;SDS011;18335;51.486;7.562;2023-03-15T00:00:42;10.95;;;2.28;;
31760;SDS011;18335;51.486;7.562;2023-03-15T00:03:09;9.82;;;1.70;;
31760;SDS011;18335;51.486;7.562;2023-03-15T00:05:40;14.35;;;1.90;;
31760;SDS011;18335;51.486;7.562;2023-03-15T00:08:07;7.65;;;1.63;;
31760;SDS011;18335;51.486;7.562;2023-03-15T00:10:38;10.75;;;2.90;;
31760;SDS011;18335;51.486;7.562;2023-03-15T00:13:05;14.25;;;2.40;;
31760;SDS011;18335;51.486;7.562;2023-03-15T00:15:34;15.00;;;4.18;;
31760;SDS011;18335;51.486;7.562;2023-03-15T00:18:01;11.10;;;1.73;;
31760;SDS011;18335;51.486;7.562;2023-03-15T00:20:28;19.02;;;2.33;;
31760;SDS011;18335;51.486;7.562;2023-03-15T00:22:55;12.55;;;1.70;;
31760;SDS011;18335;51.486;7.562;2023-03-15T00:25:21;14.63;;;2.78;;
31760;SDS011;18335;51.486;7.562;2023-03-15T00:27:48;9.35;;;2.53;;
31760;SDS011;18335;51.486;7.562;2023-03-15T00:30:15;15.15;;;2.13;;
31760;SDS011;18335;51.486;7.562;2023-03-15T00:32:43;11.25;;;3.22;;
31760;SDS011;18335;51.486;7.562;2023-03-15T00:35:10;10.30;;;2.13;;
31760;SDS011;18335;51.486;7.562;2023-03-15T00:37:38;14.27;;;3.03;;
31760;SDS011;18335;51.486;7.562;2023-03-15T00:40:05;13.77;;;3.15;;
31760;SDS011;18335;51.486;7.562;2023-03-15T00:42:32;21.92;;;5.43;;
31760;SDS011;18335;51.486;7.562;2023-03-15T00:44:59;10.77;;;1.92;;
31760;SDS011;18335;51.486;7.562;2023-03-15T00:47:26;14.65;;;2.05;;
31760;SDS011;18335;51.486;7.562;2023-03-15T00:49:54;8.88;;;3.03;;
31760;SDS011;18335;51.486;7.562;2023-03-15T00:52:21;12.77;;;2.97;;
31760;SDS011;18335;51.486;7.562;2023-03-15T00:54:52;14.27;;;1.98;;
31760;SDS011;18335;51.486;7.562;2023-03-15T00:57:20;16.45;;;2.72;;
31760;SDS011;18335;51.486;7.562;2023-03-15T00:59:46;11.85;;;2.38;;
31760;SDS011;18335;51.486;7.562;2023-03-15T01:02:13;15.18;;;3.05;;
31760;SDS011;18335;51.486;7.562;2023-03-15T01:04:40;21.50;;;2.70;;
31760;SDS011;18335;51.486;7.562;2023-03-15T01:07:08;14.98;;;2.33;;
31760;SDS011;18335;51.486;7.562;2023-03-15T01:09:36;19.77;;;2.78;;
31760;SDS011;18335;51.486;7.562;2023-03-15T01:12:03;11.73;;;5.03;;
31760;SDS011;18335;51.486;7.562;2023-03-15T01:14:30;13.85;;;3.70;;
31760;SDS011;18335;51.486;7.562;2023-03-15T01:16:59;16.40;;;4.40;;
31760;SDS011;18335;51.486;7.562;2023-03-15T01:19:27;14.93;;;4.25;;
31760;SDS011;18335;51.486;7.562;2023-03-15T01:21:53;10.65;;;3.95;;
31760;SDS011;18335;51.486;7.562;2023-03-15T01:24:21;15.77;;;6.70;;
31760;SDS011;18335;51.486;7.562;2023-03-15T01:26:49;20.60;;;6.35;;
31760;SDS011;18335;51.486;7.562;2023-03-15T01:29:15;17.30;;;5.05;;
31760;SDS011;18335;51.486;7.562;2023-03-15T01:31:42;15.77;;;5.07;;
31760;SDS011;18335;51.486;7.562;2023-03-15T01:34:09;13.32;;;5.07;;
31760;SDS011;18335;51.486;7.562;2023-03-15T01:36:36;13.18;;;4.65;;
31760;SDS011;18335;51.486;7.562;2023-03-15T01:39:03;19.33;;;5.55;;
31760;SDS011;18335;51.486;7.562;2023-03-15T01:41:40;16.45;;;5.55;;
31760;SDS011;18335;51.486;7.562;2023-03-15T01:44:09;15.65;;;4.50;;
31760;SDS011;18335;51.486;7.562;2023-03-15T01:46:38;10.10;;;4.72;;
31760;SDS011;18335;51.486;7.562;2023-03-15T01:49:13;15.32;;;5.53;;
31760;SDS011;18335;51.486;7.562;2023-03-15T01:51:47;15.93;;;4.40;;
31760;SDS011;18335;51.486;7.562;2023-03-15T01:54:18;16.80;;;5.18;;
31760;SDS011;18335;51.486;7.562;2023-03-15T01:56:51;21.65;;;6.05;;
31760;SDS011;18335;51.486;7.562;2023-03-15T01:59:24;14.40;;;5.82;;
31760;SDS011;18335;51.486;7.562;2023-03-15T02:01:55;10.48;;;5.05;;
31760;SDS011;18335;51.486;7.562;2023-03-15T02:04:24;16.00;;;5.97;;
31760;SDS011;18335;51.486;7.562;2023-03-15T02:06:56;13.65;;;6.03;;
31760;SDS011;18335;51.486;7.562;2023-03-15T02:09:31;12.32;;;6.47;;
31760;SDS011;18335;51.486;7.562;2023-03-15T02:12:04;13.65;;;6.18;;
31760;SDS011;18335;51.486;7.562;2023-03-15T02:14:31;9.68;;;4.93;;
31760;SDS011;18335;51.486;7.562;2023-03-15T02:17:00;10.85;;;5.20;;
31760;SDS011;18335;51.486;7.562;2023-03-15T02:19:32;8.63;;;5.22;;
31760;SDS011;18335;51.486;7.562;2023-03-15T02:22:13;7.25;;;3.50;;
31760;SDS011;18335;51.486;7.562;2023-03-15T02:24:51;9.82;;;3.20;;
31760;SDS011;18335;51.486;7.562;2023-03-15T02:27:25;7.40;;;4.22;;
31760;SDS011;18335;51.486;7.562;2023-03-15T02:29:54;6.60;;;3.17;;
31760;SDS011;18335;51.486;7.562;2023-03-15T02:32:23;10.40;;;4.22;;
31760;SDS011;18335;51.486;7.562;2023-03-15T02:34:50;9.75;;;3.88;;
31760;SDS011;18335;51.486;7.562;2023-03-15T02:37:17;7.75;;;3.03;;
31760;SDS011;18335;51.486;7.562;2023-03-15T02:39:44;7.43;;;3.55;;
31760;SDS011;18335;51.486;7.562;2023-03-15T02:42:11;5.75;;;3.10;;
31760;SDS011;18335;51.486;7.562;2023-03-15T02:44:43;7.97;;;3.25;;
31760;SDS011;18335;51.486;7.562;2023-03-15T02:47:12;6.28;;;3.20;;
31760;SDS011;18335;51.486;7.562;2023-03-15T02:49:43;8.05;;;3.75;;
31760;SDS011;18335;51.486;7.562;2023-03-15T02:52:13;8.30;;;3.75;;
31760;SDS011;18335;51.486;7.562;2023-03-15T02:54:40;13.00;;;5.07;;
31760;SDS011;18335;51.486;7.562;2023-03-15T02:57:07;9.05;;;4.32;;
31760;SDS011;18335;51.486;7.562;2023-03-15T02:59:36;10.07;;;5.25;;
31760;SDS011;18335;51.486;7.562;2023-03-15T03:02:04;13.25;;;6.22;;
31760;SDS011;18335;51.486;7.562;2023-03-15T03:04:33;11.02;;;4.25;;
31760;SDS011;18335;51.486;7.562;2023-03-15T03:07:00;8.20;;;4.43;;
31760;SDS011;18335;51.486;7.562;2023-03-15T03:09:34;6.20;;;3.70;;
31760;SDS011;18335;51.486;7.562;2023-03-15T03:12:01;11.57;;;4.55;;
31760;SDS011;18335;51.486;7.562;2023-03-15T03:14:30;9.35;;;4.47;;
31760;SDS011;18335;51.486;7.562;2023-03-15T03:16:57;10.05;;;4.30;;
31760;SDS011;18335;51.486;7.562;2023-03-15T03:19:25;11.57;;;5.68;;
31760;SDS011;18335;51.486;7.562;2023-03-15T03:21:52;8.98;;;4.78;;
31760;SDS011;18335;51.486;7.562;2023-03-15T03:24:20;10.55;;;5.00;;
31760;SDS011;18335;51.486;7.562;2023-03-15T03:26:51;9.60;;;4.95;;
31760;SDS011;18335;51.486;7.562;2023-03-15T03:29:22;10.90;;;5.68;;
31760;SDS011;18335;51.486;7.562;2023-03-15T03:31:48;10.80;;;5.20;;
31760;SDS011;18335;51.486;7.562;2023-03-15T03:34:19;10.95;;;5.35;;
31760;SDS011;18335;51.486;7.562;2023-03-15T03:36:47;11.68;;;5.35;;
31760;SDS011;18335;51.486;7.562;2023-03-15T03:39:18;11.82;;;5.15;;
31760;SDS011;18335;51.486;7.562;2023-03-15T03:41:45;12.20;;;5.47;;
31760;SDS011;18335;51.486;7.562;2023-03-15T03:44:12;11.23;;;6.03;;
31760;SDS011;18335;51.486;7.562;2023-03-15T03:46:40;11.27;;;6.38;;
31760;SDS011;18335;51.486;7.562;2023-03-15T03:49:07;12.55;;;6.28;;
31760;SDS011;18335;51.486;7.562;2023-03-15T03:51:34;12.25;;;5.53;;
31760;SDS011;18335;51.486;7.562;2023-03-15T03:54:03;14.02;;;6.07;;
31760;SDS011;18335;51.486;7.562;2023-03-15T03:56:30;12.00;;;6.50;;
31760;SDS011;18335;51.486;7.562;2023-03-15T03:58:57;14.48;;;5.95;;
31760;SDS011;18335;51.486;7.562;2023-03-15T04:01:35;11.70;;;6.15;;
31760;SDS011;18335;51.486;7.562;2023-03-15T04:04:02;16.15;;;7.00;;
31760;SDS011;18335;51.486;7.562;2023-03-15T04:06:29;13.20;;;6.97;;
31760;SDS011;18335;51.486;7.562;2023-03-15T04:08:56;13.25;;;6.28;;
31760;SDS011;18335;51.486;7.562;2023-03-15T04:11:32;14.82;;;7.85;;
31760;SDS011;18335;51.486;7.562;2023-03-15T04:14:03;14.18;;;6.90;;
31760;SDS011;18335;51.486;7.562;2023-03-15T04:16:30;12.88;;;6.65;;
31760;SDS011;18335;51.486;7.562;2023-03-15T04:19:02;14.32;;;6.55;;
31760;SDS011;18335;51.486;7.562;2023-03-15T04:21:31;12.93;;;7.13;;
31760;SDS011;18335;51.486;7.562;2023-03-15T04:24:12;15.10;;;7.35;;
31760;SDS011;18335;51.486;7.562;2023-03-15T04:27:10;11.77;;;7.28;;
31760;SDS011;18335;51.486;7.562;2023-03-15T04:29:57;18.40;;;8.55;;
31760;SDS011;18335;51.486;7.562;2023-03-15T04:32:49;17.42;;;8.18;;
31760;SDS011;18335;51.486;7.562;2023-03-15T04:35:58;15.43;;;8.05;;
31760;SDS011;18335;51.486;7.562;2023-03-15T04:38:27;14.32;;;7.57;;
31760;SDS011;18335;51.486;7.562;2023-03-15T04:41:16;16.40;;;8.02;;
31760;SDS011;18335;51.486;7.562;2023-03-15T04:44:09;15.35;;;8.15;;
31760;SDS011;18335;51.486;7.562;2023-03-15T04:46:54;15.18;;;8.30;;
31760;SDS011;18335;51.486;7.562;2023-03-15T04:49:45;15.07;;;7.68;;
31760;SDS011;18335;51.486;7.562;2023-03-15T04:52:26;14.20;;;8.63;;
31760;SDS011;18335;51.486;7.562;2023-03-15T04:55:01;15.45;;;8.27;;
31760;SDS011;18335;51.486;7.562;2023-03-15T04:57:34;14.63;;;7.53;;
31760;SDS011;18335;51.486;7.562;2023-03-15T05:00:13;16.52;;;8.40;;
31760;SDS011;18335;51.486;7.562;2023-03-15T05:02:58;15.52;;;7.93;;
31760;SDS011;18335;51.486;7.562;2023-03-15T05:05:43;15.90;;;7.75;;
31760;SDS011;18335;51.486;7.562;2023-03-15T05:08:29;15.75;;;8.23;;
31760;SDS011;18335;51.486;7.562;2023-03-15T05:11:09;15.10;;;7.45;;
31760;SDS011;18335;51.486;7.562;2023-03-15T05:14:06;14.35;;;8.80;;
31760;SDS011;18335;51.486;7.562;2023-03-15T05:16:34;18.02;;;7.43;;
31760;SDS011;18335;51.486;7.562;2023-03-15T05:19:14;15.38;;;7.63;;
31760;SDS011;18335;51.486;7.562;2023-03-15T05:21:41;12.52;;;6.05;;
31760;SDS011;18335;51.486;7.562;2023-03-15T05:24:26;14.07;;;6.63;;
31760;SDS011;18335;51.486;7.562;2023-03-15T05:26:53;14.05;;;6.18;;
31760;SDS011;18335;51.486;7.562;2023-03-15T05:29:33;11.48;;;5.80;;
31760;SDS011;18335;51.486;7.562;2023-03-15T05:32:20;11.43;;;5.13;;
31760;SDS011;18335;51.486;7.562;2023-03-15T05:35:15;12.25;;;5.93;;
31760;SDS011;18335;51.486;7.562;2023-03-15T05:38:05;16.58;;;6.22;;
31760;SDS011;18335;51.486;7.562;2023-03-15T05:40:44;12.95;;;6.20;;
31760;SDS011;18335;51.486;7.562;2023-03-15T05:43:35;11.02;;;4.88;;
31760;SDS011;18335;51.486;7.562;2023-03-15T05:46:31;9.45;;;4.45;;
31760;SDS011;18335;51.486;7.562;2023-03-15T05:49:16;10.55;;;4.88;;
31760;SDS011;18335;51.486;7.562;2023-03-15T05:52:06;11.00;;;4.78;;
31760;SDS011;18335;51.486;7.562;2023-03-15T05:54:42;12.50;;;5.55;;
31760;SDS011;18335;51.486;7.562;2023-03-15T05:57:29;13.98;;;6.72;;
31760;SDS011;18335;51.486;7.562;2023-03-15T06:00:18;13.98;;;5.15;;
31760;SDS011;18335;51.486;7.562;2023-03-15T06:02:48;9.85;;;4.22;;
31760;SDS011;18335;51.486;7.562;2023-03-15T06:05:41;14.73;;;4.78;;
31760;SDS011;18335;51.486;7.562;2023-03-15T06:08:13;10.75;;;4.53;;
31760;SDS011;18335;51.486;7.562;2023-03-15T06:10:43;12.02;;;3.90;;
31760;SDS011;18335;51.486;7.562;2023-03-15T06:13:11;15.43;;;6.07;;
31760;SDS011;18335;51.486;7.562;2023-03-15T06:15:39;9.10;;;4.05;;
31760;SDS011;18335;51.486;7.562;2023-03-15T06:18:07;11.27;;;4.25;;
31760;SDS011;18335;51.486;7.562;2023-03-15T06:20:33;8.70;;;4.22;;
31760;SDS011;18335;51.486;7.562;2023-03-15T06:23:08;11.63;;;4.85;;
31760;SDS011;18335;51.486;7.562;2023-03-15T06:25:45;11.68;;;4.80;;
31760;SDS011;18335;51.486;7.562;2023-03-15T06:28:13;17.23;;;7.05;;
31760;SDS011;18335;51.486;7.562;2023-03-15T06:30:45;16.85;;;4.97;;
31760;SDS011;18335;51.486;7.562;2023-03-15T06:33:12;11.50;;;4.70;;
31760;SDS011;18335;51.486;7.562;2023-03-15T06:35:39;12.90;;;4.53;;
31760;SDS011;18335;51.486;7.562;2023-03-15T06:38:05;11.50;;;5.03;;
31760;SDS011;18335;51.486;7.562;2023-03-15T06:40:33;13.60;;;5.25;;
31760;SDS011;18335;51.486;7.562;2023-03-15T06:43:00;11.68;;;5.82;;
31760;SDS011;18335;51.486;7.562;2023-03-15T06:45:30;15.90;;;6.93;;
31760;SDS011;18335;51.486;7.562;2023-03-15T06:47:57;13.25;;;6.90;;
31760;SDS011;18335;51.486;7.562;2023-03-15T06:50:24;12.90;;;6.90;;
31760;SDS011;18335;51.486;7.562;2023-03-15T06:52:52;23.00;;;9.63;;
31760;SDS011;18335;51.486;7.562;2023-03-15T06:55:19;11.95;;;6.45;;
31760;SDS011;18335;51.486;7.562;2023-03-15T06:57:47;12.20;;;6.50;;
31760;SDS011;18335;51.486;7.562;2023-03-15T07:00:14;13.30;;;7.53;;
31760;SDS011;18335;51.486;7.562;2023-03-15T07:02:41;14.15;;;7.30;;
31760;SDS011;18335;51.486;7.562;2023-03-15T07:05:08;13.75;;;7.63;;
31760;SDS011;18335;51.486;7.562;2023-03-15T07:07:35;12.38;;;7.57;;
31760;SDS011;18335;51.486;7.562;2023-03-15T07:10:02;14.00;;;7.32;;
31760;SDS011;18335;51.486;7.562;2023-03-15T07:12:29;12.57;;;7.40;;
31760;SDS011;18335;51.486;7.562;2023-03-15T07:14:57;15.23;;;7.45;;
31760;SDS011;18335;51.486;7.562;2023-03-15T07:17:24;14.23;;;7.32;;
31760;SDS011;18335;51.486;7.562;2023-03-15T07:19:50;13.32;;;7.30;;
31760;SDS011;18335;51.486;7.562;2023-03-15T07:22:17;11.40;;;6.97;;
31760;SDS011;18335;51.486;7.562;2023-03-15T07:24:46;16.10;;;7.93;;
31760;SDS011;18335;51.486;7.562;2023-03-15T07:27:13;15.13;;;7.32;;
31760;SDS011;18335;51.486;7.562;2023-03-15T07:29:40;15.82;;;6.85;;
31760;SDS011;18335;51.486;7.562;2023-03-15T07:32:08;13.77;;;7.15;;
31760;SDS011;18335;51.486;7.562;2023-03-15T07:34:35;13.27;;;7.63;;
31760;SDS011;18335;51.486;7.562;2023-03-15T07:37:02;15.75;;;7.53;;
31760;SDS011;18335;51.486;7.562;2023-03-15T07:39:29;15.23;;;6.72;;
31760;SDS011;18335;51.486;7.562;2023-03-15T07:41:56;16.23;;;5.88;;
31760;SDS011;18335;51.486;7.562;2023-03-15T07:44:30;13.05;;;6.60;;
31760;SDS011;18335;51.486;7.562;2023-03-15T07:46:56;15.05;;;6.20;;
31760;SDS011;18335;51.486;7.562;2023-03-15T07:49:25;13.90;;;6.40;;
31760;SDS011;18335;51.486;7.562;2023-03-15T07:51:52;15.73;;;7.30;;
31760;SDS011;18335;51.486;7.562;2023-03-15T07:54:18;12.90;;;6.88;;
31760;SDS011;18335;51.486;7.562;2023-03-15T07:56:45;13.30;;;6.30;;
31760;SDS011;18335;51.486;7.562;2023-03-15T07:59:12;13.20;;;6.85;;
31760;SDS011;18335;51.486;7.562;2023-03-15T08:01:39;13.98;;;6.88;;
31760;SDS011;18335;51.486;7.562;2023-03-15T08:04:06;16.05;;;7.70;;
31760;SDS011;18335;51.486;7.562;2023-03-15T08:06:34;22.85;;;8.27;;
31760;SDS011;18335;51.486;7.562;2023-03-15T08:09:01;30.40;;;7.97;;
31760;SDS011;18335;51.486;7.562;2023-03-15T08:11:30;14.18;;;6.65;;
31760;SDS011;18335;51.486;7.562;2023-03-15T08:13:57;12.90;;;5.93;;
31760;SDS011;18335;51.486;7.562;2023-03-15T08:16:23;15.38;;;6.32;;
31760;SDS011;18335;51.486;7.562;2023-03-15T08:18:50;15.20;;;6.18;;
31760;SDS011;18335;51.486;7.562;2023-03-15T08:21:17;11.20;;;5.50;;
31760;SDS011;18335;51.486;7.562;2023-03-15T08:23:45;15.73;;;5.78;;
31760;SDS011;18335;51.486;7.562;2023-03-15T08:26:11;14.15;;;5.47;;
31760;SDS011;18335;51.486;7.562;2023-03-15T08:28:38;15.35;;;6.03;;
31760;SDS011;18335;51.486;7.562;2023-03-15T08:31:05;11.98;;;5.50;;
31760;SDS011;18335;51.486;7.562;2023-03-15T08:33:32;11.32;;;5.15;;
31760;SDS011;18335;51.486;7.562;2023-03-15T08:35:59;11.77;;;5.20;;
31760;SDS011;18335;51.486;7.562;2023-03-15T08:38:26;13.85;;;5.57;;
31760;SDS011;18335;51.486;7.562;2023-03-15T08:40:56;11.23;;;4.50;;
31760;SDS011;18335;51.486;7.562;2023-03-15T08:43:23;13.55;;;5.07;;
31760;SDS011;18335;51.486;7.562;2023-03-15T08:45:50;11.75;;;5.30;;
31760;SDS011;18335;51.486;7.562;2023-03-15T08:48:17;10.60;;;4.38;;
31760;SDS011;18335;51.486;7.562;2023-03-15T08:50:44;10.88;;;5.15;;
31760;SDS011;18335;51.486;7.562;2023-03-15T08:53:11;12.13;;;4.60;;
31760;SDS011;18335;51.486;7.562;2023-03-15T08:55:38;13.43;;;4.68;;
31760;SDS011;18335;51.486;7.562;2023-03-15T08:58:06;14.18;;;4.70;;
31760;SDS011;18335;51.486;7.562;2023-03-15T09:00:33;11.60;;;4.47;;
31760;SDS011;18335;51.486;7.562;2023-03-15T09:03:00;14.65;;;4.38;;
31760;SDS011;18335;51.486;7.562;2023-03-15T09:05:26;11.98;;;4.25;;
31760;SDS011;18335;51.486;7.562;2023-03-15T09:07:53;14.73;;;3.70;;
31760;SDS011;18335;51.486;7.562;2023-03-15T09:10:20;11.88;;;4.78;;
31760;SDS011;18335;51.486;7.562;2023-03-15T09:12:47;11.27;;;3.38;;
31760;SDS011;18335;51.486;7.562;2023-03-15T09:15:18;10.82;;;3.75;;
31760;SDS011;18335;51.486;7.562;2023-03-15T09:17:47;14.48;;;3.88;;
31760;SDS011;18335;51.486;7.562;2023-03-15T09:20:14;11.10;;;3.70;;
31760;SDS011;18335;51.486;7.562;2023-03-15T09:22:44;15.15;;;5.47;;
31760;SDS011;18335;51.486;7.562;2023-03-15T09:25:16;9.07;;;3.92;;
31760;SDS011;18335;51.486;7.562;2023-03-15T09:27:43;12.18;;;4.00;;
31760;SDS011;18335;51.486;7.562;2023-03-15T09:30:10;16.52;;;4.80;;
31760;SDS011;18335;51.486;7.562;2023-03-15T09:32:39;9.50;;;3.65;;
31760;SDS011;18335;51.486;7.562;2023-03-15T09:35:08;9.05;;;4.30;;
31760;SDS011;18335;51.486;7.562;2023-03-15T09:37:38;14.00;;;4.13;;
31760;SDS011;18335;51.486;7.562;2023-03-15T09:40:09;11.30;;;4.05;;
31760;SDS011;18335;51.486;7.562;2023-03-15T09:42:47;14.32;;;3.83;;
31760;SDS011;18335;51.486;7.562;2023-03-15T09:45:23;14.45;;;4.70;;
31760;SDS011;18335;51.486;7.562;2023-03-15T09:47:59;14.35;;;4.28;;
31760;SDS011;18335;51.486;7.562;2023-03-15T09:50:31;11.52;;;3.60;;
31760;SDS011;18335;51.486;7.562;2023-03-15T09:53:02;11.77;;;4.70;;
31760;SDS011;18335;51.486;7.562;2023-03-15T09:55:36;13.45;;;4.32;;
31760;SDS011;18335;51.486;7.562;2023-03-15T09:58:03;18.23;;;4.80;;
31760;SDS011;18335;51.486;7.562;2023-03-15T10:00:36;11.43;;;5.03;;
31760;SDS011;18335;51.486;7.562;2023-03-15T10:03:08;14.77;;;3.75;;
31760;SDS011;18335;51.486;7.562;2023-03-15T10:05:42;13.48;;;3.80;;
31760;SDS011;18335;51.486;7.562;2023-03-15T10:08:13;16.35;;;3.80;;
31760;SDS011;18335;51.486;7.562;2023-03-15T10:10:43;11.52;;;4.20;;
31760;SDS011;18335;51.486;7.562;2023-03-15T10:13:31;16.38;;;3.85;;
31760;SDS011;18335;51.486;7.562;2023-03-15T10:16:16;13.68;;;4.18;;
31760;SDS011;18335;51.486;7.562;2023-03-15T10:18:56;17.83;;;5.13;;
31760;SDS011;18335;51.486;7.562;2023-03-15T10:21:32;14.07;;;3.67;;
31760;SDS011;18335;51.486;7.562;2023-03-15T10:24:09;13.75;;;3.92;;
31760;SDS011;18335;51.486;7.562;2023-03-15T10:29:11;12.48;;;3.28;;
31760;SDS011;18335;51.486;7.562;2023-03-15T10:31:43;8.70;;;2.20;;
31760;SDS011;18335;51.486;7.562;2023-03-15T10:34:13;32.58;;;4.30;;
31760;SDS011;18335;51.486;7.562;2023-03-15T10:36:47;11.80;;;3.22;;
31760;SDS011;18335;51.486;7.562;2023-03-15T10:39:18;11.13;;;2.65;;
31760;SDS011;18335;51.486;7.562;2023-03-15T10:41:46;11.57;;;2.85;;
31760;SDS011;18335;51.486;7.562;2023-03-15T10:44:15;10.75;;;3.20;;
31760;SDS011;18335;51.486;7.562;2023-03-15T10:46:57;15.07;;;2.60;;
31760;SDS011;18335;51.486;7.562;2023-03-15T10:49:32;9.80;;;3.15;;
31760;SDS011;18335;51.486;7.562;2023-03-15T10:52:00;13.95;;;3.22;;
31760;SDS011;18335;51.486;7.562;2023-03-15T10:54:29;9.88;;;2.30;;
31760;SDS011;18335;51.486;7.562;2023-03-15T10:56:58;9.82;;;3.25;;
31760;SDS011;18335;51.486;7.562;2023-03-15T10:59:27;12.63;;;3.70;;
31760;SDS011;18335;51.486;7.562;2023-03-15T11:02:06;11.63;;;3.30;;
31760;SDS011;18335;51.486;7.562;2023-03-15T11:04:46;10.45;;;3.03;;
31760;SDS011;18335;51.486;7.562;2023-03-15T11:07:14;12.75;;;3.88;;
31760;SDS011;18335;51.486;7.562;2023-03-15T11:09:41;14.95;;;3.47;;
31760;SDS011;18335;51.486;7.562;2023-03-15T11:12:11;12.63;;;3.13;;
31760;SDS011;18335;51.486;7.562;2023-03-15T11:14:42;9.68;;;2.38;;
31760;SDS011;18335;51.486;7.562;2023-03-15T11:17:15;11.07;;;3.38;;
31760;SDS011;18335;51.486;7.562;2023-03-15T11:19:48;12.18;;;2.92;;
31760;SDS011;18335;51.486;7.562;2023-03-15T11:24:47;10.50;;;2.83;;
31760;SDS011;18335;51.486;7.562;2023-03-15T11:27:15;11.02;;;3.00;;
31760;SDS011;18335;51.486;7.562;2023-03-15T11:29:45;15.43;;;2.35;;
31760;SDS011;18335;51.486;7.562;2023-03-15T11:32:17;9.00;;;2.70;;
31760;SDS011;18335;51.486;7.562;2023-03-15T11:34:49;9.13;;;3.15;;
31760;SDS011;18335;51.486;7.562;2023-03-15T11:37:24;9.10;;;2.63;;
31760;SDS011;18335;51.486;7.562;2023-03-15T11:39:54;9.65;;;3.40;;
31760;SDS011;18335;51.486;7.562;2023-03-15T11:42:27;9.02;;;1.70;;
31760;SDS011;18335;51.486;7.562;2023-03-15T11:44:58;7.45;;;1.70;;
31760;SDS011;18335;51.486;7.562;2023-03-15T11:47:33;11.40;;;3.88;;
31760;SDS011;18335;51.486;7.562;2023-03-15T11:50:08;10.03;;;2.23;;
31760;SDS011;18335;51.486;7.562;2023-03-15T11:52:38;8.40;;;2.22;;
31760;SDS011;18335;51.486;7.562;2023-03-15T11:55:05;11.50;;;2.60;;
31760;SDS011;18335;51.486;7.562;2023-03-15T11:57:41;7.82;;;2.65;;
31760;SDS011;18335;51.486;7.562;2023-03-15T12:00:17;8.65;;;2.03;;
31760;SDS011;18335;51.486;7.562;2023-03-15T12:02:59;16.98;;;3.20;;
31760;SDS011;18335;51.486;7.562;2023-03-15T12:06:01;8.88;;;2.25;;
31760;SDS011;18335;51.486;7.562;2023-03-15T12:08:42;10.32;;;2.08;;
31760;SDS011;18335;51.486;7.562;2023-03-15T12:11:11;6.60;;;1.55;;
31760;SDS011;18335;51.486;7.562;2023-03-15T12:13:50;11.05;;;2.03;;
31760;SDS011;18335;51.486;7.562;2023-03-15T12:16:28;11.63;;;2.33;;
31760;SDS011;18335;51.486;7.562;2023-03-15T12:18:59;10.98;;;2.08;;
31760;SDS011;18335;51.486;7.562;2023-03-15T12:21:32;11.40;;;2.78;;
31760;SDS011;18335;51.486;7.562;2023-03-15T12:24:00;7.53;;;2.20;;
31760;SDS011;18335;51.486;7.562;2023-03-15T12:29:13;9.95;;;2.30;;
31760;SDS011;18335;51.486;7.562;2023-03-15T12:31:48;7.22;;;1.80;;
31760;SDS011;18335;51.486;7.562;2023-03-15T12:34:28;5.43;;;1.27;;
31760;SDS011;18335;51.486;7.562;2023-03-15T12:37:05;9.77;;;2.25;;
31760;SDS011;18335;51.486;7.562;2023-03-15T12:39:39;5.65;;;1.67;;
31760;SDS011;18335;51.486;7.562;2023-03-15T12:48:18;11.15;;;1.60;;
31760;SDS011;18335;51.486;7.562;2023-03-15T12:50:51;12.60;;;2.05;;
31760;SDS011;18335;51.486;7.562;2023-03-15T12:53:37;6.38;;;2.20;;
31760;SDS011;18335;51.486;7.562;2023-03-15T12:56:26;6.55;;;1.92;;
31760;SDS011;18335;51.486;7.562;2023-03-15T12:58:59;5.72;;;1.30;;
31760;SDS011;18335;51.486;7.562;2023-03-15T13:01:29;8.20;;;1.70;;
31760;SDS011;18335;51.486;7.562;2023-03-15T13:03:57;6.30;;;1.35;;
31760;SDS011;18335;51.486;7.562;2023-03-15T13:06:29;6.03;;;1.20;;
31760;SDS011;18335;51.486;7.562;2023-03-15T13:09:08;8.00;;;1.40;;
31760;SDS011;18335;51.486;7.562;2023-03-15T13:11:43;8.20;;;1.50;;
31760;SDS011;18335;51.486;7.562;2023-03-15T13:14:19;6.80;;;1.88;;
31760;SDS011;18335;51.486;7.562;2023-03-15T13:17:00;7.03;;;2.20;;
31760;SDS011;18335;51.486;7.562;2023-03-15T13:19:41;7.10;;;1.90;;
31760;SDS011;18335;51.486;7.562;2023-03-15T13:22:11;6.97;;;1.55;;
31760;SDS011;18335;51.486;7.562;2023-03-15T13:24:53;5.03;;;1.10;;
31760;SDS011;18335;51.486;7.562;2023-03-15T13:27:32;7.15;;;1.38;;
31760;SDS011;18335;51.486;7.562;2023-03-15T13:30:20;6.00;;;1.50;;
31760;SDS011;18335;51.486;7.562;2023-03-15T13:33:00;6.68;;;1.92;;
31760;SDS011;18335;51.486;7.562;2023-03-15T13:35:30;8.15;;;3.45;;
31760;SDS011;18335;51.486;7.562;2023-03-15T13:37:59;7.15;;;1.30;;
31760;SDS011;18335;51.486;7.562;2023-03-15T13:40:33;8.13;;;1.88;;
31760;SDS011;18335;51.486;7.562;2023-03-15T13:43:00;6.60;;;1.60;;
31760;SDS011;18335;51.486;7.562;2023-03-15T13:45:27;5.40;;;1.42;;
31760;SDS011;18335;51.486;7.562;2023-03-15T13:47:53;7.95;;;1.67;;
31760;SDS011;18335;51.486;7.562;2023-03-15T13:50:20;4.30;;;1.55;;
31760;SDS011;18335;51.486;7.562;2023-03-15T13:52:47;7.43;;;2.28;;
31760;SDS011;18335;51.486;7.562;2023-03-15T13:55:14;7.00;;;1.88;;
31760;SDS011;18335;51.486;7.562;2023-03-15T13:57:48;5.82;;;1.45;;
31760;SDS011;18335;51.486;7.562;2023-03-15T14:00:20;5.70;;;1.33;;
31760;SDS011;18335;51.486;7.562;2023-03-15T14:02:49;5.95;;;1.40;;
31760;SDS011;18335;51.486;7.562;2023-03-15T14:05:19;4.90;;;1.30;;
31760;SDS011;18335;51.486;7.562;2023-03-15T14:07:54;7.25;;;1.20;;
31760;SDS011;18335;51.486;7.562;2023-03-15T14:10:27;10.50;;;1.55;;
31760;SDS011;18335;51.486;7.562;2023-03-15T14:12:57;3.47;;;1.40;;
31760;SDS011;18335;51.486;7.562;2023-03-15T14:15:33;7.32;;;1.35;;
31760;SDS011;18335;51.486;7.562;2023-03-15T14:18:03;5.70;;;1.10;;
31760;SDS011;18335;51.486;7.562;2023-03-15T14:20:41;5.95;;;1.20;;
31760;SDS011;18335;51.486;7.562;2023-03-15T14:23:10;4.30;;;0.95;;
31760;SDS011;18335;51.486;7.562;2023-03-15T14:25:39;3.80;;;0.88;;
31760;SDS011;18335;51.486;7.562;2023-03-15T14:28:10;4.70;;;1.58;;
31760;SDS011;18335;51.486;7.562;2023-03-15T14:30:40;4.32;;;1.25;;
31760;SDS011;18335;51.486;7.562;2023-03-15T14:33:20;3.53;;;1.05;;
31760;SDS011;18335;51.486;7.562;2023-03-15T14:35:52;5.97;;;1.20;;
31760;SDS011;18335;51.486;7.562;2023-03-15T14:38:21;5.68;;;1.13;;
31760;SDS011;18335;51.486;7.562;2023-03-15T14:40:49;4.20;;;1.10;;
31760;SDS011;18335;51.486;7.562;2023-03-15T14:43:18;5.72;;;1.20;;
31760;SDS011;18335;51.486;7.562;2023-03-15T14:45:45;8.43;;;1.27;;
31760;SDS011;18335;51.486;7.562;2023-03-15T14:48:13;3.30;;;1.08;;
31760;SDS011;18335;51.486;7.562;2023-03-15T14:50:44;5.57;;;1.20;;
31760;SDS011;18335;51.486;7.562;2023-03-15T14:53:12;1.83;;;0.70;;
31760;SDS011;18335;51.486;7.562;2023-03-15T14:55:41;4.40;;;0.90;;
31760;SDS011;18335;51.486;7.562;2023-03-15T14:58:09;4.53;;;1.10;;
31760;SDS011;18335;51.486;7.562;2023-03-15T15:00:39;6.55;;;1.15;;
31760;SDS011;18335;51.486;7.562;2023-03-15T15:03:06;6.35;;;1.20;;
31760;SDS011;18335;51.486;7.562;2023-03-15T15:05:41;5.50;;;0.95;;
31760;SDS011;18335;51.486;7.562;2023-03-15T15:08:09;3.58;;;1.02;;
31760;SDS011;18335;51.486;7.562;2023-03-15T15:10:38;7.78;;;1.10;;
31760;SDS011;18335;51.486;7.562;2023-03-15T15:13:05;5.25;;;1.00;;
31760;SDS011;18335;51.486;7.562;2023-03-15T15:15:32;5.55;;;1.10;;
31760;SDS011;18335;51.486;7.562;2023-03-15T15:18:01;4.38;;;1.13;;